createdAt,value
2022-12-31T00:01:52.690Z,13.11
2022-12-31T00:04:27.279Z,13.05
2022-12-31T00:06:54.345Z,12.92
2022-12-31T00:09:22.044Z,13.06
2022-12-31T00:11:49.121Z,13.05
2022-12-31T00:14:16.190Z,12.96
2022-12-31T00:16:43.495Z,12.92
2022-12-31T00:19:12.245Z,12.82
2022-12-31T00:21:39.947Z,12.73
2022-12-31T00:24:07.629Z,12.71
2022-12-31T00:26:35.847Z,12.86
2022-12-31T00:29:04.765Z,12.66
2022-12-31T00:31:37.230Z,12.84
2022-12-31T00:34:05.561Z,12.75
2022-12-31T00:36:37.910Z,12.95
2022-12-31T00:39:07.210Z,12.98
2022-12-31T00:41:35.068Z,13.05
2022-12-31T00:44:02.801Z,13.08
2022-12-31T00:46:30.015Z,13.08
2022-12-31T00:48:58.156Z,13.08
2022-12-31T00:51:27.553Z,13.03
2022-12-31T00:53:56.089Z,13.10
2022-12-31T00:56:26.133Z,13.02
2022-12-31T00:58:53.154Z,13.02
2022-12-31T01:01:24.171Z,12.99
2022-12-31T01:03:55.026Z,13.01
2022-12-31T01:06:22.664Z,13.01
2022-12-31T01:08:50.695Z,12.99
2022-12-31T01:11:24.059Z,12.96
2022-12-31T01:13:56.966Z,13.03
2022-12-31T01:16:47.905Z,13.04
2022-12-31T01:19:26.482Z,12.96
2022-12-31T01:21:54.077Z,12.84
2022-12-31T01:24:21.159Z,12.88
2022-12-31T01:26:49.637Z,12.87
2022-12-31T01:29:17.061Z,12.80
2022-12-31T01:31:44.128Z,12.80
2022-12-31T01:34:11.221Z,12.76
2022-12-31T01:36:38.815Z,12.84
2022-12-31T01:39:09.735Z,12.89
2022-12-31T01:41:45.004Z,12.92
2022-12-31T01:44:14.067Z,12.95
2022-12-31T01:46:50.949Z,13.02
2022-12-31T01:49:23.754Z,13.05
2022-12-31T01:52:02.458Z,13.05
2022-12-31T01:54:33.772Z,13.02
2022-12-31T01:57:01.581Z,13.07
2022-12-31T01:59:29.891Z,13.08
2022-12-31T02:01:57.134Z,12.98
2022-12-31T02:04:25.882Z,12.93
2022-12-31T02:07:02.177Z,12.98
2022-12-31T02:09:30.457Z,12.98
2022-12-31T02:11:57.365Z,12.96
2022-12-31T02:14:32.909Z,12.96
2022-12-31T02:17:25.379Z,12.93
2022-12-31T02:20:13.691Z,12.96
2022-12-31T02:22:43.232Z,12.97
2022-12-31T02:25:29.343Z,12.96
2022-12-31T02:28:21.251Z,13.07
2022-12-31T02:30:59.833Z,13.03
2022-12-31T02:34:05.025Z,12.98
2022-12-31T02:36:39.018Z,12.98
2022-12-31T02:39:07.565Z,12.94
2022-12-31T02:41:53.872Z,12.98
2022-12-31T02:44:24.458Z,12.95
2022-12-31T02:47:25.918Z,12.97
2022-12-31T02:50:05.341Z,12.96
2022-12-31T02:53:03.395Z,12.98
2022-12-31T02:55:47.670Z,12.99
2022-12-31T02:59:07.610Z,12.97
2022-12-31T03:01:58.760Z,12.80
2022-12-31T03:04:32.507Z,12.82
2022-12-31T03:07:11.538Z,12.84
2022-12-31T03:09:39.244Z,12.86
2022-12-31T03:12:27.232Z,12.85
2022-12-31T03:14:54.675Z,12.87
2022-12-31T03:17:22.058Z,12.88
2022-12-31T03:20:07.867Z,12.90
2022-12-31T03:22:38.509Z,12.90
2022-12-31T03:25:27.932Z,12.85
2022-12-31T03:27:56.304Z,12.92
2022-12-31T03:30:24.087Z,12.68
2022-12-31T03:32:51.923Z,12.58
2022-12-31T03:35:22.962Z,12.61
2022-12-31T03:37:51.593Z,12.65
2022-12-31T03:40:20.764Z,12.71
2022-12-31T03:42:47.889Z,12.75
2022-12-31T03:45:14.913Z,12.78
2022-12-31T03:47:41.926Z,12.82
2022-12-31T03:50:11.416Z,12.81
2022-12-31T03:52:38.681Z,12.86
2022-12-31T03:55:06.548Z,12.94
2022-12-31T03:57:33.543Z,12.89
2022-12-31T04:00:00.399Z,12.81
2022-12-31T04:02:29.402Z,12.80
2022-12-31T04:04:56.396Z,12.81
2022-12-31T04:07:23.861Z,12.75
2022-12-31T04:09:50.647Z,12.75
2022-12-31T04:12:17.534Z,12.79
2022-12-31T04:14:44.271Z,12.85
2022-12-31T04:17:11.217Z,12.87
2022-12-31T04:19:38.031Z,12.87
2022-12-31T04:22:05.251Z,12.90
2022-12-31T04:24:32.187Z,12.96
2022-12-31T04:27:05.384Z,13.00
2022-12-31T04:29:34.659Z,13.01
2022-12-31T04:32:01.717Z,12.95
2022-12-31T04:34:28.611Z,12.95
2022-12-31T04:36:55.418Z,12.98
2022-12-31T04:39:22.266Z,12.99
2022-12-31T04:41:49.792Z,13.00
2022-12-31T04:44:16.768Z,12.97
2022-12-31T04:46:44.274Z,13.01
2022-12-31T04:49:11.327Z,12.98
2022-12-31T04:51:38.269Z,12.97
2022-12-31T04:54:05.557Z,12.98
2022-12-31T04:56:33.030Z,12.98
2022-12-31T04:58:59.870Z,12.99
2022-12-31T05:01:26.891Z,12.96
2022-12-31T05:03:53.768Z,12.97
2022-12-31T05:06:23.018Z,12.99
2022-12-31T05:08:50.467Z,12.98
2022-12-31T05:11:17.459Z,12.95
2022-12-31T05:13:44.605Z,12.94
2022-12-31T05:16:11.589Z,12.98
2022-12-31T05:18:38.491Z,12.97
2022-12-31T05:21:06.217Z,12.95
2022-12-31T05:23:33.122Z,12.89
2022-12-31T05:26:00.052Z,12.87
2022-12-31T05:28:26.946Z,12.93
2022-12-31T05:30:53.945Z,12.88
2022-12-31T05:33:21.340Z,12.78
2022-12-31T05:35:48.194Z,12.77
2022-12-31T05:38:15.086Z,12.82
2022-12-31T05:40:42.127Z,12.82
2022-12-31T05:43:08.990Z,12.86
2022-12-31T05:45:35.832Z,12.91
2022-12-31T05:48:02.651Z,12.88
2022-12-31T05:50:29.599Z,12.85
2022-12-31T05:52:56.616Z,12.90
2022-12-31T05:55:24.241Z,12.91
2022-12-31T05:57:51.110Z,12.91
2022-12-31T06:00:18.076Z,12.96
2022-12-31T06:02:45.604Z,12.97
2022-12-31T06:05:13.138Z,12.97
2022-12-31T06:07:39.911Z,12.94
2022-12-31T06:10:07.512Z,13.01
2022-12-31T06:12:34.329Z,13.11
2022-12-31T06:15:01.300Z,13.11
2022-12-31T06:17:32.492Z,13.04
2022-12-31T06:19:59.959Z,13.00
2022-12-31T06:22:26.848Z,12.99
2022-12-31T06:24:53.725Z,12.91
2022-12-31T06:27:20.516Z,12.77
2022-12-31T06:29:48.092Z,12.69
2022-12-31T06:32:15.965Z,12.69
2022-12-31T06:34:42.823Z,12.71
2022-12-31T06:37:09.860Z,12.72
2022-12-31T06:39:36.725Z,12.67
2022-12-31T06:42:03.470Z,12.71
2022-12-31T06:44:30.332Z,12.75
2022-12-31T06:46:57.090Z,12.78
2022-12-31T06:49:24.154Z,12.82
2022-12-31T06:51:51.000Z,12.79
2022-12-31T06:54:17.888Z,12.77
2022-12-31T06:56:45.152Z,12.79
2022-12-31T06:59:30.199Z,12.80
2022-12-31T07:02:37.430Z,12.85
2022-12-31T07:05:12.989Z,12.84
2022-12-31T07:07:54.509Z,12.81
2022-12-31T07:10:39.583Z,12.72
2022-12-31T07:13:24.794Z,12.83
2022-12-31T07:15:53.196Z,12.78
2022-12-31T07:18:31.824Z,12.78
2022-12-31T07:20:59.464Z,12.76
2022-12-31T07:23:26.548Z,12.76
2022-12-31T07:26:11.029Z,12.82
2022-12-31T07:28:40.818Z,12.86
2022-12-31T07:31:10.620Z,12.94
2022-12-31T07:33:40.339Z,12.96
2022-12-31T07:36:25.621Z,13.10
2022-12-31T07:39:05.599Z,13.07
2022-12-31T07:41:47.478Z,13.09
2022-12-31T07:44:42.299Z,13.10
2022-12-31T07:47:21.278Z,13.11
2022-12-31T07:49:49.104Z,13.14
2022-12-31T07:52:16.524Z,13.15
2022-12-31T07:54:43.974Z,13.14
2022-12-31T07:57:15.810Z,13.16
2022-12-31T07:59:58.777Z,13.20
2022-12-31T08:02:59.372Z,13.21
2022-12-31T08:05:46.407Z,13.21
2022-12-31T08:08:19.130Z,13.20
2022-12-31T08:11:05.100Z,13.20
2022-12-31T08:13:32.571Z,13.20
2022-12-31T08:16:00.280Z,13.22
2022-12-31T08:18:27.383Z,13.22
2022-12-31T08:21:00.166Z,13.23
2022-12-31T08:23:58.009Z,13.25
2022-12-31T08:26:46.908Z,13.28
2022-12-31T08:29:31.423Z,13.27
2022-12-31T08:32:19.686Z,13.35
2022-12-31T08:34:57.626Z,13.34
2022-12-31T08:38:01.915Z,13.35
2022-12-31T08:40:39.563Z,13.32
2022-12-31T08:43:06.322Z,13.38
2022-12-31T08:45:49.430Z,13.35
2022-12-31T08:48:25.597Z,13.36
2022-12-31T08:50:53.390Z,13.30
2022-12-31T08:53:20.581Z,13.16
2022-12-31T08:55:49.601Z,13.31
2022-12-31T08:58:19.250Z,13.32
2022-12-31T09:00:50.046Z,13.33
2022-12-31T09:03:26.195Z,13.33
2022-12-31T09:06:27.317Z,13.36
2022-12-31T09:09:07.182Z,13.37
2022-12-31T09:11:49.481Z,13.38
2022-12-31T09:14:48.677Z,13.34
2022-12-31T09:17:43.017Z,13.46
2022-12-31T09:20:42.270Z,13.40
2022-12-31T09:23:11.541Z,13.34
2022-12-31T09:25:45.835Z,13.37
2022-12-31T09:28:15.519Z,13.37
2022-12-31T09:30:58.315Z,13.39
2022-12-31T09:33:46.727Z,13.38
2022-12-31T09:36:22.273Z,13.40
2022-12-31T09:38:56.043Z,13.42
2022-12-31T09:41:48.899Z,13.48
2022-12-31T09:44:43.411Z,13.54
2022-12-31T09:47:22.239Z,13.55
2022-12-31T09:50:26.615Z,13.62
2022-12-31T09:53:12.638Z,13.61
2022-12-31T09:56:04.214Z,13.56
2022-12-31T09:58:49.341Z,13.59
2022-12-31T10:01:19.338Z,13.58
2022-12-31T10:04:13.259Z,13.61
2022-12-31T10:06:40.017Z,13.62
2022-12-31T10:09:24.846Z,13.63
2022-12-31T10:12:13.311Z,13.63
2022-12-31T10:14:58.026Z,13.64
2022-12-31T10:17:43.283Z,13.63
2022-12-31T10:20:22.690Z,13.60
2022-12-31T10:23:19.388Z,13.66
2022-12-31T10:26:08.960Z,13.70
2022-12-31T10:28:56.411Z,13.73
2022-12-31T10:31:55.388Z,13.73
2022-12-31T10:34:22.147Z,13.74
2022-12-31T10:37:13.758Z,13.76
2022-12-31T10:40:05.063Z,13.77
2022-12-31T10:43:08.415Z,13.78
2022-12-31T10:45:58.550Z,13.79
2022-12-31T10:48:54.984Z,13.80
2022-12-31T10:51:40.061Z,13.78
2022-12-31T10:54:35.977Z,13.81
2022-12-31T10:57:25.983Z,13.82
2022-12-31T11:00:11.246Z,13.88
2022-12-31T11:03:07.376Z,13.91
2022-12-31T11:05:52.851Z,13.88
2022-12-31T11:08:44.284Z,13.87
2022-12-31T11:11:35.821Z,13.91
2022-12-31T11:14:27.201Z,13.92
2022-12-31T11:17:07.006Z,13.91
2022-12-31T11:19:48.809Z,13.92
2022-12-31T11:22:41.940Z,13.96
2022-12-31T11:25:11.957Z,13.98
2022-12-31T11:27:49.583Z,14.00
2022-12-31T11:30:37.041Z,14.05
2022-12-31T11:33:22.677Z,14.09
2022-12-31T11:36:26.882Z,14.15
2022-12-31T11:39:13.446Z,14.18
2022-12-31T11:41:49.690Z,14.23
2022-12-31T11:44:54.806Z,14.22
2022-12-31T11:48:20.259Z,14.22
2022-12-31T11:50:44.773Z,14.23
2022-12-31T12:15:06.991Z,14.32
2022-12-31T12:24:07.087Z,14.22
2022-12-31T12:36:32.937Z,14.44
2022-12-31T12:39:06.864Z,14.61
2022-12-31T12:41:36.802Z,14.61
2022-12-31T12:44:14.113Z,14.69
2022-12-31T12:46:48.396Z,14.67
2022-12-31T12:49:26.646Z,14.63
2022-12-31T12:52:27.554Z,14.67
2022-12-31T12:55:28.615Z,14.72
2022-12-31T13:00:52.082Z,14.78
2022-12-31T13:07:05.643Z,14.80
2022-12-31T13:09:50.859Z,14.79
2022-12-31T13:13:05.233Z,14.78
2022-12-31T13:16:05.965Z,14.77
2022-12-31T13:18:44.733Z,14.84
2022-12-31T13:21:41.931Z,14.91
2022-12-31T13:24:28.478Z,14.89
2022-12-31T13:27:10.115Z,14.93
2022-12-31T13:29:39.739Z,14.93
2022-12-31T13:32:13.046Z,14.98
2022-12-31T13:34:44.566Z,14.96
2022-12-31T13:37:33.880Z,14.95
2022-12-31T13:40:24.163Z,14.89
2022-12-31T13:43:34.448Z,14.85
2022-12-31T13:46:09.767Z,14.83
2022-12-31T13:48:44.621Z,14.80
2022-12-31T13:51:23.085Z,14.79
2022-12-31T13:53:53.717Z,14.77
2022-12-31T13:56:25.798Z,14.77
2022-12-31T13:59:04.834Z,14.80
2022-12-31T14:01:41.139Z,14.85
2022-12-31T14:04:44.945Z,14.89
2022-12-31T14:07:20.036Z,14.91
2022-12-31T14:09:46.898Z,14.94
2022-12-31T14:12:39.923Z,14.95
2022-12-31T14:15:13.553Z,14.93
2022-12-31T14:17:55.776Z,14.92
2022-12-31T14:20:28.960Z,14.87
2022-12-31T14:23:11.075Z,14.82
2022-12-31T14:25:47.395Z,14.79
2022-12-31T14:28:29.487Z,14.77
2022-12-31T14:31:07.270Z,14.78
2022-12-31T14:34:29.665Z,14.77
2022-12-31T14:37:05.720Z,14.76
2022-12-31T14:39:49.630Z,14.76
2022-12-31T14:42:36.979Z,14.73
2022-12-31T14:45:17.780Z,14.72
2022-12-31T14:47:44.574Z,14.72
2022-12-31T14:50:17.509Z,14.71
2022-12-31T14:52:52.313Z,14.71
2022-12-31T14:55:24.246Z,14.72
2022-12-31T15:00:52.535Z,14.70
2022-12-31T15:03:46.116Z,14.67
2022-12-31T15:06:53.019Z,14.68
2022-12-31T15:10:04.553Z,14.66
2022-12-31T15:12:34.371Z,14.66
2022-12-31T15:15:03.900Z,14.67
2022-12-31T15:17:39.657Z,14.72
2022-12-31T15:20:43.714Z,14.74
2022-12-31T15:23:25.645Z,14.77
2022-12-31T15:26:00.417Z,14.76
2022-12-31T15:28:35.449Z,14.78
2022-12-31T15:31:07.598Z,14.77
2022-12-31T15:33:53.273Z,14.69
2022-12-31T15:36:23.308Z,14.71
2022-12-31T15:38:50.944Z,14.71
2022-12-31T15:41:27.019Z,14.70
2022-12-31T15:44:15.138Z,14.64
2022-12-31T15:46:43.959Z,14.53
2022-12-31T15:49:18.388Z,14.48
2022-12-31T15:52:13.425Z,14.33
2022-12-31T15:54:44.487Z,14.40
2022-12-31T15:57:21.368Z,14.35
2022-12-31T15:59:48.394Z,14.36
2022-12-31T16:02:25.932Z,14.40
2022-12-31T16:04:55.098Z,14.46
2022-12-31T16:07:24.554Z,14.45
2022-12-31T16:09:58.265Z,14.35
2022-12-31T16:12:34.445Z,14.33
2022-12-31T16:15:03.330Z,14.37
2022-12-31T16:17:33.959Z,14.40
2022-12-31T16:20:03.129Z,14.40
2022-12-31T16:22:37.501Z,14.36
2022-12-31T16:27:54.790Z,14.41
2022-12-31T16:30:21.707Z,14.36
2022-12-31T16:32:50.250Z,14.29
2022-12-31T16:35:32.328Z,14.26
2022-12-31T16:38:22.907Z,14.27
2022-12-31T16:41:05.067Z,14.37
2022-12-31T16:43:40.399Z,14.43
2022-12-31T16:46:35.174Z,14.41
2022-12-31T16:49:16.051Z,14.42
2022-12-31T16:51:43.264Z,14.35
2022-12-31T16:54:24.692Z,14.33
2022-12-31T16:56:52.002Z,14.38
2022-12-31T16:59:44.216Z,14.44
2022-12-31T17:02:18.122Z,14.49
2022-12-31T17:04:56.367Z,14.46
2022-12-31T17:07:32.509Z,14.46
2022-12-31T17:10:22.662Z,14.48
2022-12-31T17:15:44.428Z,14.49
2022-12-31T17:18:20.028Z,14.41
2022-12-31T17:20:48.711Z,14.33
2022-12-31T17:23:36.794Z,14.25
2022-12-31T17:26:21.505Z,14.26
2022-12-31T17:28:51.780Z,14.24
2022-12-31T17:31:29.979Z,14.22
2022-12-31T17:34:15.556Z,14.22
2022-12-31T17:37:17.705Z,14.20
2022-12-31T17:39:53.143Z,14.17
2022-12-31T17:42:37.390Z,14.20
2022-12-31T17:45:18.077Z,14.15
2022-12-31T17:47:51.175Z,14.13
2022-12-31T17:50:26.714Z,14.12
2022-12-31T17:53:04.682Z,14.11
2022-12-31T17:55:31.612Z,14.12
2022-12-31T17:57:58.590Z,14.07
2022-12-31T18:00:27.914Z,14.04
2022-12-31T18:02:55.059Z,13.98
2022-12-31T18:05:24.436Z,13.90
2022-12-31T18:07:51.987Z,13.78
2022-12-31T18:10:22.375Z,13.76
2022-12-31T18:12:49.515Z,13.77
2022-12-31T18:15:19.716Z,13.75
2022-12-31T18:17:46.705Z,13.80
2022-12-31T18:20:13.920Z,13.78
2022-12-31T18:22:45.112Z,13.76
2022-12-31T18:25:24.678Z,13.76
2022-12-31T18:27:52.548Z,13.81
2022-12-31T18:30:19.652Z,13.88
2022-12-31T18:32:47.009Z,13.91
2022-12-31T18:35:48.565Z,13.95
2022-12-31T18:38:11.810Z,14.15
2022-12-31T18:40:42.757Z,14.22
2022-12-31T18:43:18.933Z,14.24
2022-12-31T18:45:47.539Z,14.33
2022-12-31T18:48:15.075Z,14.28
2022-12-31T18:50:42.631Z,14.14
2022-12-31T18:53:18.459Z,14.06
2022-12-31T18:55:51.262Z,13.98
2022-12-31T18:58:18.651Z,13.97
2022-12-31T19:00:46.140Z,13.98
2022-12-31T19:03:22.317Z,14.02
2022-12-31T19:05:51.202Z,14.12
2022-12-31T19:08:19.396Z,14.32
2022-12-31T19:10:47.916Z,14.48
2022-12-31T19:13:16.525Z,14.55
2022-12-31T19:15:51.878Z,14.61
2022-12-31T19:18:19.513Z,14.61
2022-12-31T19:21:19.722Z,14.64
2022-12-31T19:23:47.126Z,14.68
2022-12-31T19:26:19.289Z,14.61
2022-12-31T19:28:47.694Z,14.63
2022-12-31T19:31:17.670Z,14.66
2022-12-31T19:33:44.798Z,14.75
2022-12-31T19:36:19.331Z,14.80
2022-12-31T19:38:46.824Z,14.85
2022-12-31T19:41:16.270Z,14.86
2022-12-31T19:43:43.440Z,14.88
2022-12-31T19:46:14.840Z,14.79
2022-12-31T19:48:42.090Z,14.60
2022-12-31T19:54:00.799Z,14.48
2022-12-31T19:56:27.689Z,14.32
2022-12-31T19:58:54.582Z,14.58
2022-12-31T20:01:23.745Z,14.56
2022-12-31T20:03:51.658Z,14.53
2022-12-31T20:06:18.909Z,14.55
2022-12-31T20:08:46.683Z,14.57
2022-12-31T20:11:21.935Z,14.62
2022-12-31T20:13:50.110Z,14.59
2022-12-31T20:16:19.859Z,14.59
2022-12-31T20:18:48.017Z,14.56
2022-12-31T20:21:18.047Z,14.55
2022-12-31T20:23:45.716Z,14.55
2022-12-31T20:26:13.006Z,14.53
2022-12-31T20:28:40.217Z,14.58
2022-12-31T20:31:11.835Z,14.56
2022-12-31T20:33:39.050Z,14.46
2022-12-31T20:36:13.717Z,14.34
2022-12-31T20:38:44.411Z,14.29
2022-12-31T20:41:18.170Z,14.25
2022-12-31T20:43:46.482Z,14.21
2022-12-31T20:46:16.396Z,14.19
2022-12-31T20:48:44.546Z,14.18
2022-12-31T20:51:13.092Z,14.12
2022-12-31T20:53:40.732Z,14.11
2022-12-31T20:56:08.953Z,14.05
2022-12-31T20:58:36.128Z,14.05
2022-12-31T21:01:07.388Z,14.03
2022-12-31T21:06:27.177Z,14.00
2022-12-31T21:08:58.863Z,13.99
2022-12-31T21:11:44.843Z,13.93
2022-12-31T21:14:11.745Z,13.90
2022-12-31T21:16:38.820Z,13.86
2022-12-31T21:19:06.077Z,13.83
2022-12-31T21:21:33.449Z,13.80
2022-12-31T21:24:00.436Z,13.78
2022-12-31T21:26:27.791Z,13.77
2022-12-31T21:28:54.659Z,13.70
2022-12-31T21:31:21.549Z,13.69
2022-12-31T21:33:49.467Z,13.70
2022-12-31T21:36:16.384Z,13.67
2022-12-31T21:38:43.945Z,13.66
2022-12-31T21:41:35.089Z,13.70
2022-12-31T21:44:02.313Z,13.62
2022-12-31T21:46:29.731Z,13.55
2022-12-31T21:49:00.255Z,13.50
2022-12-31T21:51:28.500Z,13.38
2022-12-31T21:53:55.497Z,13.36
2022-12-31T21:56:22.668Z,13.29
2022-12-31T21:59:16.795Z,13.18
2022-12-31T22:02:02.593Z,13.13
2022-12-31T22:07:16.793Z,13.21
2022-12-31T22:09:43.631Z,13.20
2022-12-31T22:12:10.500Z,13.14
2022-12-31T22:14:37.295Z,13.14
2022-12-31T22:17:04.350Z,13.12
2022-12-31T22:19:31.191Z,13.24
2022-12-31T22:21:58.155Z,13.30
2022-12-31T22:24:24.999Z,13.21
2022-12-31T22:26:54.259Z,13.25
2022-12-31T22:29:21.692Z,13.25
2022-12-31T22:31:48.547Z,13.17
2022-12-31T22:34:15.539Z,13.24
2022-12-31T22:36:42.440Z,13.25
2022-12-31T22:39:44.033Z,13.25
2022-12-31T22:42:01.856Z,13.29
2022-12-31T22:44:28.871Z,13.35
2022-12-31T22:46:56.377Z,13.33
2022-12-31T22:49:23.421Z,13.31
2022-12-31T22:51:56.391Z,13.24
2022-12-31T22:54:25.826Z,13.19
2022-12-31T22:56:52.685Z,13.24
2022-12-31T22:59:19.630Z,13.24
2022-12-31T23:01:46.475Z,13.26
2022-12-31T23:04:13.913Z,13.29
2022-12-31T23:06:43.993Z,13.32
2022-12-31T23:09:33.693Z,13.29
2022-12-31T23:12:01.267Z,13.40
2022-12-31T23:14:46.660Z,13.47
2022-12-31T23:17:35.524Z,13.53
2022-12-31T23:20:22.298Z,13.58
2022-12-31T23:23:08.019Z,13.57
2022-12-31T23:25:36.861Z,13.63
2022-12-31T23:28:05.040Z,13.61
2022-12-31T23:30:31.999Z,13.59
2022-12-31T23:32:58.878Z,13.50
2022-12-31T23:35:26.788Z,13.50
2022-12-31T23:37:54.014Z,13.55
2022-12-31T23:40:22.073Z,13.49
2022-12-31T23:42:50.260Z,13.46
2022-12-31T23:45:17.218Z,13.41
2022-12-31T23:47:44.193Z,13.40
2022-12-31T23:50:11.087Z,13.43
2022-12-31T23:52:38.432Z,13.51
2022-12-31T23:55:05.570Z,13.55
2022-12-31T23:57:32.411Z,13.61
2022-12-31T23:59:59.640Z,13.64
